Huvudsida
METAR-TAF:

METAR-TAF

Flygplatser :

Sindal, Danmark

Sindals flygplats

latitud: 57-30N, longitud: 010-13E, höjd: 28 m

Aktuellt väderrapport

Denna rapport gjordes för 14 timmar och 45 minuter sedan, klockan 12:50 UTC
Vind 5 kt från ost
Temperatur 2°C
Fuktighet 93%
Tryck 989 hPa
Sikt 10 km eller mer
Spridda moln på en höjd av 600 ft
Brutna moln på en höjd av 5000 ft

METAR: EKSN 181250Z 10005KT 9999 SCT006 BKN050 02/01 Q0989 R08/510294

Tid: 04:35 (03:35 UTC)

Väderprognos

Denna rapport gjordes för 18 timmar och 42 minuter sedan, klockan 08:53 UTC
Prognos gäller från 18 kl. 09 UTC till 18 kl. 14 UTC
Vind 5 kt från sydost
Sikt: 8000 m
Spridda moln på en höjd av 800 ft
Brutna moln på en höjd av 3000 ft
Temporärt
från 18 kl. 09 UTC till 18 kl. 14 UTC
Sikt: 2500 m
Brutna moln på en höjd av 400 ft
Spridda moln på en höjd av 2000 ft, Cumulonimbus.
lätta snöbyar, regn

TAF: EKSN 180853Z 1809/1814 13005KT 8000 SCT008 BKN030 TEMPO 1809/1814 2500 -SHSNRA BKN004 SCT020CB

Aktuella väderrapporter och prognoser från 4000 flygplatser (METAR- och TAF-rapporter).

De tillgängliga stationerna syns som gula och röda prickar på kartan.

För musen över prickarna för att se namnen på stationerna.

Klicka sedan för att få väderrapporter och prognoser.

För att ändra kartan: Klicka på de gröna knapparna med ett svart kors på för att zooma in; den gröna knappen med ett streck på för att zooma ut; eller på de gröna pilarna för angränsande kartor.


METAR-TAF: